sensor_id;sensor_type;location;lat;lon;timestamp;P1;durP1;ratioP1;P2;durP2;ratioP2
10230;SDS011;62604;49.432;8.680;2023-04-24T00:01:16;3.60;;;3.40;;
10230;SDS011;62604;49.432;8.680;2023-04-24T00:03:44;3.80;;;3.50;;
10230;SDS011;62604;49.432;8.680;2023-04-24T00:06:11;3.70;;;3.40;;
10230;SDS011;62604;49.432;8.680;2023-04-24T00:08:38;3.93;;;3.40;;
10230;SDS011;62604;49.432;8.680;2023-04-24T00:11:05;3.80;;;3.60;;
10230;SDS011;62604;49.432;8.680;2023-04-24T00:13:32;3.60;;;3.40;;
10230;SDS011;62604;49.432;8.680;2023-04-24T00:15:59;3.50;;;3.30;;
10230;SDS011;62604;49.432;8.680;2023-04-24T00:18:27;3.70;;;3.50;;
10230;SDS011;62604;49.432;8.680;2023-04-24T00:20:54;3.87;;;3.50;;
10230;SDS011;62604;49.432;8.680;2023-04-24T00:23:21;3.67;;;3.47;;
10230;SDS011;62604;49.432;8.680;2023-04-24T00:25:48;3.07;;;2.97;;
10230;SDS011;62604;49.432;8.680;2023-04-24T00:28:15;3.70;;;3.50;;
10230;SDS011;62604;49.432;8.680;2023-04-24T00:30:42;3.70;;;3.50;;
10230;SDS011;62604;49.432;8.680;2023-04-24T00:33:08;3.60;;;3.47;;
10230;SDS011;62604;49.432;8.680;2023-04-24T00:35:37;3.80;;;3.40;;
10230;SDS011;62604;49.432;8.680;2023-04-24T00:38:04;3.50;;;3.40;;
10230;SDS011;62604;49.432;8.680;2023-04-24T00:40:30;4.03;;;3.63;;
10230;SDS011;62604;49.432;8.680;2023-04-24T00:42:57;4.13;;;3.70;;
10230;SDS011;62604;49.432;8.680;2023-04-24T00:45:24;3.60;;;3.40;;
10230;SDS011;62604;49.432;8.680;2023-04-24T00:47:52;3.57;;;3.27;;
10230;SDS011;62604;49.432;8.680;2023-04-24T00:50:20;3.20;;;3.10;;
10230;SDS011;62604;49.432;8.680;2023-04-24T00:52:49;4.13;;;3.40;;
10230;SDS011;62604;49.432;8.680;2023-04-24T00:55:16;3.50;;;3.30;;
10230;SDS011;62604;49.432;8.680;2023-04-24T00:57:43;3.10;;;3.00;;
10230;SDS011;62604;49.432;8.680;2023-04-24T01:00:12;3.60;;;3.40;;
10230;SDS011;62604;49.432;8.680;2023-04-24T01:02:40;3.57;;;3.37;;
10230;SDS011;62604;49.432;8.680;2023-04-24T01:05:10;3.80;;;3.60;;
10230;SDS011;62604;49.432;8.680;2023-04-24T01:07:38;3.60;;;3.40;;
10230;SDS011;62604;49.432;8.680;2023-04-24T01:10:10;3.13;;;3.03;;
10230;SDS011;62604;49.432;8.680;2023-04-24T01:12:39;3.87;;;3.67;;
10230;SDS011;62604;49.432;8.680;2023-04-24T01:15:06;3.63;;;3.43;;
10230;SDS011;62604;49.432;8.680;2023-04-24T01:17:34;3.23;;;3.03;;
10230;SDS011;62604;49.432;8.680;2023-04-24T01:20:02;3.47;;;3.17;;
10230;SDS011;62604;49.432;8.680;2023-04-24T01:22:32;2.60;;;2.40;;
10230;SDS011;62604;49.432;8.680;2023-04-24T01:25:00;2.37;;;2.27;;
10230;SDS011;62604;49.432;8.680;2023-04-24T01:27:28;2.77;;;2.57;;
10230;SDS011;62604;49.432;8.680;2023-04-24T01:29:55;2.30;;;2.17;;
10230;SDS011;62604;49.432;8.680;2023-04-24T01:32:21;1.90;;;1.80;;
10230;SDS011;62604;49.432;8.680;2023-04-24T01:34:49;3.03;;;1.80;;
10230;SDS011;62604;49.432;8.680;2023-04-24T01:37:17;1.83;;;1.73;;
10230;SDS011;62604;49.432;8.680;2023-04-24T01:39:45;1.67;;;1.57;;
10230;SDS011;62604;49.432;8.680;2023-04-24T01:42:12;2.80;;;1.90;;
10230;SDS011;62604;49.432;8.680;2023-04-24T01:44:40;1.60;;;1.50;;
10230;SDS011;62604;49.432;8.680;2023-04-24T01:47:08;1.80;;;1.70;;
10230;SDS011;62604;49.432;8.680;2023-04-24T01:49:35;2.30;;;1.70;;
10230;SDS011;62604;49.432;8.680;2023-04-24T01:52:03;5.10;;;1.60;;
10230;SDS011;62604;49.432;8.680;2023-04-24T01:54:30;3.20;;;1.50;;
10230;SDS011;62604;49.432;8.680;2023-04-24T01:56:59;1.70;;;1.57;;
10230;SDS011;62604;49.432;8.680;2023-04-24T01:59:27;1.60;;;1.50;;
10230;SDS011;62604;49.432;8.680;2023-04-24T02:01:54;5.93;;;2.00;;
10230;SDS011;62604;49.432;8.680;2023-04-24T02:04:21;1.83;;;1.57;;
10230;SDS011;62604;49.432;8.680;2023-04-24T02:06:48;13.83;;;1.77;;
10230;SDS011;62604;49.432;8.680;2023-04-24T02:09:15;3.30;;;1.63;;
10230;SDS011;62604;49.432;8.680;2023-04-24T02:11:42;3.00;;;1.87;;
10230;SDS011;62604;49.432;8.680;2023-04-24T02:14:10;1.50;;;1.40;;
10230;SDS011;62604;49.432;8.680;2023-04-24T02:16:37;1.60;;;1.50;;
10230;SDS011;62604;49.432;8.680;2023-04-24T02:19:04;1.70;;;1.60;;
10230;SDS011;62604;49.432;8.680;2023-04-24T02:21:31;1.70;;;1.60;;
10230;SDS011;62604;49.432;8.680;2023-04-24T02:23:58;2.27;;;1.70;;
10230;SDS011;62604;49.432;8.680;2023-04-24T02:26:25;2.27;;;1.67;;
10230;SDS011;62604;49.432;8.680;2023-04-24T02:28:52;3.60;;;2.10;;
10230;SDS011;62604;49.432;8.680;2023-04-24T02:31:20;1.63;;;1.53;;
10230;SDS011;62604;49.432;8.680;2023-04-24T02:33:47;1.60;;;1.50;;
10230;SDS011;62604;49.432;8.680;2023-04-24T02:36:14;3.63;;;1.73;;
10230;SDS011;62604;49.432;8.680;2023-04-24T02:38:41;1.60;;;1.50;;
10230;SDS011;62604;49.432;8.680;2023-04-24T02:41:08;3.70;;;1.53;;
10230;SDS011;62604;49.432;8.680;2023-04-24T02:43:35;1.70;;;1.47;;
10230;SDS011;62604;49.432;8.680;2023-04-24T02:46:01;1.50;;;1.40;;
10230;SDS011;62604;49.432;8.680;2023-04-24T02:48:30;4.63;;;1.77;;
10230;SDS011;62604;49.432;8.680;2023-04-24T02:50:57;1.70;;;1.60;;
10230;SDS011;62604;49.432;8.680;2023-04-24T02:53:24;1.73;;;1.63;;
10230;SDS011;62604;49.432;8.680;2023-04-24T02:55:50;3.37;;;1.53;;
10230;SDS011;62604;49.432;8.680;2023-04-24T02:58:17;1.90;;;1.50;;
10230;SDS011;62604;49.432;8.680;2023-04-24T03:00:45;2.40;;;1.70;;
10230;SDS011;62604;49.432;8.680;2023-04-24T03:03:12;3.13;;;1.87;;
10230;SDS011;62604;49.432;8.680;2023-04-24T03:05:41;1.53;;;1.43;;
10230;SDS011;62604;49.432;8.680;2023-04-24T03:08:08;2.97;;;1.50;;
10230;SDS011;62604;49.432;8.680;2023-04-24T03:10:35;1.83;;;1.73;;
10230;SDS011;62604;49.432;8.680;2023-04-24T03:13:02;2.47;;;1.57;;
10230;SDS011;62604;49.432;8.680;2023-04-24T03:15:29;1.90;;;1.80;;
10230;SDS011;62604;49.432;8.680;2023-04-24T03:17:56;1.70;;;1.60;;
10230;SDS011;62604;49.432;8.680;2023-04-24T03:20:22;2.80;;;1.70;;
10230;SDS011;62604;49.432;8.680;2023-04-24T03:22:51;2.10;;;2.00;;
10230;SDS011;62604;49.432;8.680;2023-04-24T03:25:18;1.83;;;1.73;;
10230;SDS011;62604;49.432;8.680;2023-04-24T03:27:45;1.97;;;1.87;;
10230;SDS011;62604;49.432;8.680;2023-04-24T03:30:12;1.90;;;1.80;;
10230;SDS011;62604;49.432;8.680;2023-04-24T03:32:39;2.73;;;2.40;;
10230;SDS011;62604;49.432;8.680;2023-04-24T03:35:06;10.70;;;10.00;;
10230;SDS011;62604;49.432;8.680;2023-04-24T03:37:33;7.77;;;7.37;;
10230;SDS011;62604;49.432;8.680;2023-04-24T03:40:02;3.83;;;3.60;;
10230;SDS011;62604;49.432;8.680;2023-04-24T03:42:31;3.03;;;2.83;;
10230;SDS011;62604;49.432;8.680;2023-04-24T03:44:57;2.40;;;2.03;;
10230;SDS011;62604;49.432;8.680;2023-04-24T03:47:24;9.70;;;9.00;;
10230;SDS011;62604;49.432;8.680;2023-04-24T03:49:51;9.10;;;8.60;;
10230;SDS011;62604;49.432;8.680;2023-04-24T03:52:19;4.23;;;3.93;;
10230;SDS011;62604;49.432;8.680;2023-04-24T03:54:46;1.83;;;1.73;;
10230;SDS011;62604;49.432;8.680;2023-04-24T03:57:14;2.73;;;2.10;;
10230;SDS011;62604;49.432;8.680;2023-04-24T03:59:41;10.03;;;9.43;;
10230;SDS011;62604;49.432;8.680;2023-04-24T04:02:08;10.70;;;10.00;;
10230;SDS011;62604;49.432;8.680;2023-04-24T04:04:35;10.80;;;10.10;;
10230;SDS011;62604;49.432;8.680;2023-04-24T04:07:02;10.73;;;10.03;;
10230;SDS011;62604;49.432;8.680;2023-04-24T04:09:30;11.03;;;10.23;;
10230;SDS011;62604;49.432;8.680;2023-04-24T04:11:57;10.80;;;10.10;;
10230;SDS011;62604;49.432;8.680;2023-04-24T04:14:26;10.50;;;9.80;;
10230;SDS011;62604;49.432;8.680;2023-04-24T04:16:53;10.40;;;9.70;;
10230;SDS011;62604;49.432;8.680;2023-04-24T04:19:20;10.60;;;9.80;;
10230;SDS011;62604;49.432;8.680;2023-04-24T04:21:47;10.20;;;9.60;;
10230;SDS011;62604;49.432;8.680;2023-04-24T04:24:18;10.87;;;10.17;;
10230;SDS011;62604;49.432;8.680;2023-04-24T04:26:45;10.63;;;9.90;;
10230;SDS011;62604;49.432;8.680;2023-04-24T04:29:12;10.80;;;10.10;;
10230;SDS011;62604;49.432;8.680;2023-04-24T04:31:41;11.27;;;10.47;;
10230;SDS011;62604;49.432;8.680;2023-04-24T04:34:08;11.53;;;10.73;;
10230;SDS011;62604;49.432;8.680;2023-04-24T04:36:36;7.40;;;7.00;;
10230;SDS011;62604;49.432;8.680;2023-04-24T04:39:05;7.03;;;6.50;;
10230;SDS011;62604;49.432;8.680;2023-04-24T04:41:32;6.20;;;5.80;;
10230;SDS011;62604;49.432;8.680;2023-04-24T04:44:00;4.90;;;4.60;;
10230;SDS011;62604;49.432;8.680;2023-04-24T04:46:29;3.33;;;3.13;;
10230;SDS011;62604;49.432;8.680;2023-04-24T04:49:01;4.80;;;4.50;;
10230;SDS011;62604;49.432;8.680;2023-04-24T04:51:32;7.33;;;6.80;;
10230;SDS011;62604;49.432;8.680;2023-04-24T04:54:00;4.13;;;3.73;;
10230;SDS011;62604;49.432;8.680;2023-04-24T04:56:30;3.43;;;3.13;;
10230;SDS011;62604;49.432;8.680;2023-04-24T04:58:56;2.17;;;2.00;;
10230;SDS011;62604;49.432;8.680;2023-04-24T05:01:24;4.50;;;4.20;;
10230;SDS011;62604;49.432;8.680;2023-04-24T05:03:52;2.93;;;2.43;;
10230;SDS011;62604;49.432;8.680;2023-04-24T05:06:21;6.37;;;5.97;;
10230;SDS011;62604;49.432;8.680;2023-04-24T05:08:48;8.90;;;8.40;;
10230;SDS011;62604;49.432;8.680;2023-04-24T05:11:16;6.50;;;6.00;;
10230;SDS011;62604;49.432;8.680;2023-04-24T05:13:43;3.50;;;2.83;;
10230;SDS011;62604;49.432;8.680;2023-04-24T05:16:10;6.60;;;6.20;;
10230;SDS011;62604;49.432;8.680;2023-04-24T05:18:36;7.40;;;6.80;;
10230;SDS011;62604;49.432;8.680;2023-04-24T05:21:03;5.80;;;5.40;;
10230;SDS011;62604;49.432;8.680;2023-04-24T05:23:32;5.43;;;5.13;;
10230;SDS011;62604;49.432;8.680;2023-04-24T05:25:59;6.13;;;5.50;;
10230;SDS011;62604;49.432;8.680;2023-04-24T05:28:26;5.80;;;5.40;;
10230;SDS011;62604;49.432;8.680;2023-04-24T05:30:53;6.23;;;5.83;;
10230;SDS011;62604;49.432;8.680;2023-04-24T05:33:21;6.47;;;6.07;;
10230;SDS011;62604;49.432;8.680;2023-04-24T05:35:48;6.50;;;6.10;;
10230;SDS011;62604;49.432;8.680;2023-04-24T05:38:15;6.73;;;6.13;;
10230;SDS011;62604;49.432;8.680;2023-04-24T05:40:44;7.67;;;7.27;;
10230;SDS011;62604;49.432;8.680;2023-04-24T05:43:11;8.43;;;7.93;;
10230;SDS011;62604;49.432;8.680;2023-04-24T05:45:38;10.47;;;9.80;;
10230;SDS011;62604;49.432;8.680;2023-04-24T05:48:06;3.53;;;3.13;;
10230;SDS011;62604;49.432;8.680;2023-04-24T05:50:33;3.17;;;2.87;;
10230;SDS011;62604;49.432;8.680;2023-04-24T05:53:00;10.53;;;9.83;;
10230;SDS011;62604;49.432;8.680;2023-04-24T05:55:27;10.77;;;9.97;;
10230;SDS011;62604;49.432;8.680;2023-04-24T05:57:56;10.90;;;10.20;;
10230;SDS011;62604;49.432;8.680;2023-04-24T06:00:23;10.47;;;9.77;;
10230;SDS011;62604;49.432;8.680;2023-04-24T06:02:51;6.60;;;6.20;;
10230;SDS011;62604;49.432;8.680;2023-04-24T06:05:19;10.47;;;9.73;;
10230;SDS011;62604;49.432;8.680;2023-04-24T06:07:47;9.90;;;9.20;;
10230;SDS011;62604;49.432;8.680;2023-04-24T06:10:14;8.53;;;8.00;;
10230;SDS011;62604;49.432;8.680;2023-04-24T06:12:41;11.20;;;10.20;;
10230;SDS011;62604;49.432;8.680;2023-04-24T06:15:09;10.93;;;10.23;;
10230;SDS011;62604;49.432;8.680;2023-04-24T06:17:36;12.07;;;10.40;;
10230;SDS011;62604;49.432;8.680;2023-04-24T06:20:04;10.73;;;9.93;;
10230;SDS011;62604;49.432;8.680;2023-04-24T06:22:33;10.70;;;9.87;;
10230;SDS011;62604;49.432;8.680;2023-04-24T06:25:00;10.93;;;10.03;;
10230;SDS011;62604;49.432;8.680;2023-04-24T06:27:27;10.97;;;10.17;;
10230;SDS011;62604;49.432;8.680;2023-04-24T06:29:54;10.63;;;9.93;;
10230;SDS011;62604;49.432;8.680;2023-04-24T06:32:23;10.67;;;9.77;;
10230;SDS011;62604;49.432;8.680;2023-04-24T06:34:52;10.00;;;9.40;;
10230;SDS011;62604;49.432;8.680;2023-04-24T06:37:19;10.23;;;9.43;;
10230;SDS011;62604;49.432;8.680;2023-04-24T06:39:46;10.30;;;9.60;;
10230;SDS011;62604;49.432;8.680;2023-04-24T06:42:13;9.87;;;9.27;;
10230;SDS011;62604;49.432;8.680;2023-04-24T06:44:40;9.67;;;8.87;;
10230;SDS011;62604;49.432;8.680;2023-04-24T06:47:07;9.37;;;8.80;;
10230;SDS011;62604;49.432;8.680;2023-04-24T06:49:36;10.97;;;10.17;;
10230;SDS011;62604;49.432;8.680;2023-04-24T06:52:03;9.27;;;8.67;;
10230;SDS011;62604;49.432;8.680;2023-04-24T06:54:30;9.47;;;8.77;;
10230;SDS011;62604;49.432;8.680;2023-04-24T06:56:58;9.60;;;8.67;;
10230;SDS011;62604;49.432;8.680;2023-04-24T06:59:25;9.63;;;9.03;;
10230;SDS011;62604;49.432;8.680;2023-04-24T07:01:53;9.40;;;8.80;;
10230;SDS011;62604;49.432;8.680;2023-04-24T07:04:20;9.30;;;8.70;;
10230;SDS011;62604;49.432;8.680;2023-04-24T07:06:48;9.20;;;8.70;;
10230;SDS011;62604;49.432;8.680;2023-04-24T07:09:16;8.83;;;8.33;;
10230;SDS011;62604;49.432;8.680;2023-04-24T07:11:44;8.77;;;8.27;;
10230;SDS011;62604;49.432;8.680;2023-04-24T07:14:15;8.80;;;8.30;;
10230;SDS011;62604;49.432;8.680;2023-04-24T07:16:44;8.23;;;7.60;;
10230;SDS011;62604;49.432;8.680;2023-04-24T07:19:13;8.70;;;8.20;;
10230;SDS011;62604;49.432;8.680;2023-04-24T07:21:44;8.73;;;8.23;;
10230;SDS011;62604;49.432;8.680;2023-04-24T07:24:23;8.83;;;8.33;;
10230;SDS011;62604;49.432;8.680;2023-04-24T07:27:02;8.47;;;7.87;;
10230;SDS011;62604;49.432;8.680;2023-04-24T07:29:35;8.70;;;8.20;;
10230;SDS011;62604;49.432;8.680;2023-04-24T07:32:18;8.30;;;7.80;;
10230;SDS011;62604;49.432;8.680;2023-04-24T07:34:45;8.37;;;7.83;;
10230;SDS011;62604;49.432;8.680;2023-04-24T07:37:12;8.23;;;7.73;;
10230;SDS011;62604;49.432;8.680;2023-04-24T07:39:40;7.77;;;7.37;;
10230;SDS011;62604;49.432;8.680;2023-04-24T07:42:07;8.13;;;7.73;;
